sensor_id;sensor_type;location;lat;lon;timestamp;P1;durP1;ratioP1;P2;durP2;ratioP2
70253;SDS011;57649;42.968;1.608;2023-02-01T00:01:22;11.48;;;7.90;;
70253;SDS011;57649;42.968;1.608;2023-02-01T00:03:48;12.52;;;8.13;;
70253;SDS011;57649;42.968;1.608;2023-02-01T00:06:13;11.40;;;7.85;;
70253;SDS011;57649;42.968;1.608;2023-02-01T00:08:39;11.65;;;7.25;;
70253;SDS011;57649;42.968;1.608;2023-02-01T00:11:05;10.50;;;7.00;;
70253;SDS011;57649;42.968;1.608;2023-02-01T00:13:35;11.85;;;7.53;;
70253;SDS011;57649;42.968;1.608;2023-02-01T00:16:09;9.57;;;6.28;;
70253;SDS011;57649;42.968;1.608;2023-02-01T00:18:43;10.30;;;6.38;;
70253;SDS011;57649;42.968;1.608;2023-02-01T00:23:42;11.00;;;7.07;;
70253;SDS011;57649;42.968;1.608;2023-02-01T00:26:11;11.30;;;7.30;;
70253;SDS011;57649;42.968;1.608;2023-02-01T00:28:40;12.48;;;6.97;;
70253;SDS011;57649;42.968;1.608;2023-02-01T00:31:05;10.40;;;7.00;;
70253;SDS011;57649;42.968;1.608;2023-02-01T00:33:31;10.00;;;6.40;;
70253;SDS011;57649;42.968;1.608;2023-02-01T00:36:01;9.85;;;5.97;;
70253;SDS011;57649;42.968;1.608;2023-02-01T00:38:32;7.60;;;5.13;;
70253;SDS011;57649;42.968;1.608;2023-02-01T00:41:02;8.93;;;5.53;;
70253;SDS011;57649;42.968;1.608;2023-02-01T00:43:33;9.90;;;5.60;;
70253;SDS011;57649;42.968;1.608;2023-02-01T00:45:59;7.85;;;4.93;;
70253;SDS011;57649;42.968;1.608;2023-02-01T00:48:25;8.15;;;5.47;;
70253;SDS011;57649;42.968;1.608;2023-02-01T00:50:51;6.68;;;4.00;;
70253;SDS011;57649;42.968;1.608;2023-02-01T00:53:16;6.88;;;4.20;;
70253;SDS011;57649;42.968;1.608;2023-02-01T00:55:46;7.13;;;3.85;;
70253;SDS011;57649;42.968;1.608;2023-02-01T00:58:12;4.88;;;3.55;;
70253;SDS011;57649;42.968;1.608;2023-02-01T01:00:37;5.00;;;3.58;;
70253;SDS011;57649;42.968;1.608;2023-02-01T01:03:03;6.72;;;4.30;;
70253;SDS011;57649;42.968;1.608;2023-02-01T01:05:45;7.37;;;4.17;;
70253;SDS011;57649;42.968;1.608;2023-02-01T01:08:11;7.13;;;4.68;;
70253;SDS011;57649;42.968;1.608;2023-02-01T01:10:36;6.55;;;4.60;;
70253;SDS011;57649;42.968;1.608;2023-02-01T01:13:02;7.13;;;4.40;;
70253;SDS011;57649;42.968;1.608;2023-02-01T01:15:27;5.35;;;3.60;;
70253;SDS011;57649;42.968;1.608;2023-02-01T01:17:53;5.78;;;3.50;;
70253;SDS011;57649;42.968;1.608;2023-02-01T01:20:18;4.60;;;3.13;;
70253;SDS011;57649;42.968;1.608;2023-02-01T01:22:46;4.50;;;3.20;;
70253;SDS011;57649;42.968;1.608;2023-02-01T01:25:12;5.78;;;3.83;;
70253;SDS011;57649;42.968;1.608;2023-02-01T01:27:38;6.05;;;3.78;;
70253;SDS011;57649;42.968;1.608;2023-02-01T01:30:03;6.07;;;4.30;;
70253;SDS011;57649;42.968;1.608;2023-02-01T01:32:29;8.50;;;3.58;;
70253;SDS011;57649;42.968;1.608;2023-02-01T01:34:54;6.88;;;3.47;;
70253;SDS011;57649;42.968;1.608;2023-02-01T01:37:20;4.60;;;3.30;;
70253;SDS011;57649;42.968;1.608;2023-02-01T01:39:45;6.35;;;3.30;;
70253;SDS011;57649;42.968;1.608;2023-02-01T01:42:11;4.97;;;3.15;;
70253;SDS011;57649;42.968;1.608;2023-02-01T01:47:21;5.60;;;3.17;;
70253;SDS011;57649;42.968;1.608;2023-02-01T01:49:47;5.80;;;3.30;;
70253;SDS011;57649;42.968;1.608;2023-02-01T01:52:12;4.30;;;3.20;;
70253;SDS011;57649;42.968;1.608;2023-02-01T01:54:40;5.93;;;3.00;;
70253;SDS011;57649;42.968;1.608;2023-02-01T01:57:14;6.80;;;3.72;;
70253;SDS011;57649;42.968;1.608;2023-02-01T01:59:46;5.40;;;3.42;;
70253;SDS011;57649;42.968;1.608;2023-02-01T02:02:14;6.40;;;3.20;;
70253;SDS011;57649;42.968;1.608;2023-02-01T02:04:41;5.60;;;3.83;;
70253;SDS011;57649;42.968;1.608;2023-02-01T02:07:17;5.90;;;3.75;;
70253;SDS011;57649;42.968;1.608;2023-02-01T02:09:47;4.63;;;3.22;;
70253;SDS011;57649;42.968;1.608;2023-02-01T02:12:12;7.70;;;3.47;;
70253;SDS011;57649;42.968;1.608;2023-02-01T02:14:38;5.40;;;3.22;;
70253;SDS011;57649;42.968;1.608;2023-02-01T02:17:19;5.32;;;3.38;;
70253;SDS011;57649;42.968;1.608;2023-02-01T02:20:15;6.63;;;4.15;;
70253;SDS011;57649;42.968;1.608;2023-02-01T02:26:20;4.35;;;3.15;;
70253;SDS011;57649;42.968;1.608;2023-02-01T02:31:54;4.47;;;2.72;;
70253;SDS011;57649;42.968;1.608;2023-02-01T02:39:35;4.55;;;2.80;;
70253;SDS011;57649;42.968;1.608;2023-02-01T02:45:29;5.70;;;3.28;;
70253;SDS011;57649;42.968;1.608;2023-02-01T02:48:23;5.63;;;3.47;;
70253;SDS011;57649;42.968;1.608;2023-02-01T02:51:01;4.72;;;3.05;;
70253;SDS011;57649;42.968;1.608;2023-02-01T02:53:57;4.63;;;3.30;;
70253;SDS011;57649;42.968;1.608;2023-02-01T02:56:54;6.60;;;3.00;;
70253;SDS011;57649;42.968;1.608;2023-02-01T02:59:41;4.63;;;2.50;;
70253;SDS011;57649;42.968;1.608;2023-02-01T03:02:28;3.80;;;2.65;;
70253;SDS011;57649;42.968;1.608;2023-02-01T03:05:14;4.30;;;2.70;;
70253;SDS011;57649;42.968;1.608;2023-02-01T03:10:28;6.00;;;3.30;;
70253;SDS011;57649;42.968;1.608;2023-02-01T03:12:58;5.57;;;4.00;;
70253;SDS011;57649;42.968;1.608;2023-02-01T03:18:18;6.55;;;4.65;;
70253;SDS011;57649;42.968;1.608;2023-02-01T03:20:51;4.68;;;3.65;;
70253;SDS011;57649;42.968;1.608;2023-02-01T03:23:19;6.65;;;3.92;;
70253;SDS011;57649;42.968;1.608;2023-02-01T03:28:15;7.07;;;4.68;;
70253;SDS011;57649;42.968;1.608;2023-02-01T03:30:46;6.03;;;3.78;;
70253;SDS011;57649;42.968;1.608;2023-02-01T03:33:15;5.55;;;3.80;;
70253;SDS011;57649;42.968;1.608;2023-02-01T03:38:26;8.07;;;4.03;;
70253;SDS011;57649;42.968;1.608;2023-02-01T03:43:51;7.00;;;5.32;;
70253;SDS011;57649;42.968;1.608;2023-02-01T03:46:22;8.40;;;5.30;;
70253;SDS011;57649;42.968;1.608;2023-02-01T03:48:57;8.75;;;6.25;;
70253;SDS011;57649;42.968;1.608;2023-02-01T03:51:27;7.70;;;4.85;;
70253;SDS011;57649;42.968;1.608;2023-02-01T03:53:55;6.28;;;4.47;;
70253;SDS011;57649;42.968;1.608;2023-02-01T03:56:22;6.78;;;4.63;;
70253;SDS011;57649;42.968;1.608;2023-02-01T03:58:50;6.00;;;4.35;;
70253;SDS011;57649;42.968;1.608;2023-02-01T04:01:34;5.70;;;3.40;;
70253;SDS011;57649;42.968;1.608;2023-02-01T04:03:59;7.28;;;4.15;;
70253;SDS011;57649;42.968;1.608;2023-02-01T04:06:24;7.13;;;4.65;;
70253;SDS011;57649;42.968;1.608;2023-02-01T04:08:50;6.65;;;4.20;;
70253;SDS011;57649;42.968;1.608;2023-02-01T04:11:16;6.43;;;4.18;;
70253;SDS011;57649;42.968;1.608;2023-02-01T04:13:42;7.15;;;4.55;;
70253;SDS011;57649;42.968;1.608;2023-02-01T04:16:08;9.63;;;4.75;;
70253;SDS011;57649;42.968;1.608;2023-02-01T04:18:34;6.88;;;4.55;;
70253;SDS011;57649;42.968;1.608;2023-02-01T04:21:00;12.10;;;5.43;;
70253;SDS011;57649;42.968;1.608;2023-02-01T04:23:26;13.50;;;8.60;;
70253;SDS011;57649;42.968;1.608;2023-02-01T04:25:52;13.98;;;7.10;;
70253;SDS011;57649;42.968;1.608;2023-02-01T04:28:18;11.00;;;5.72;;
70253;SDS011;57649;42.968;1.608;2023-02-01T04:30:43;12.55;;;7.00;;
70253;SDS011;57649;42.968;1.608;2023-02-01T04:33:10;14.77;;;9.32;;
70253;SDS011;57649;42.968;1.608;2023-02-01T04:35:39;10.07;;;6.57;;
70253;SDS011;57649;42.968;1.608;2023-02-01T04:38:04;12.63;;;8.00;;
70253;SDS011;57649;42.968;1.608;2023-02-01T04:40:30;17.35;;;8.77;;
70253;SDS011;57649;42.968;1.608;2023-02-01T04:42:55;6.63;;;4.50;;
70253;SDS011;57649;42.968;1.608;2023-02-01T04:45:21;6.30;;;4.22;;
70253;SDS011;57649;42.968;1.608;2023-02-01T04:47:46;7.25;;;4.53;;
70253;SDS011;57649;42.968;1.608;2023-02-01T04:50:13;6.72;;;4.10;;
70253;SDS011;57649;42.968;1.608;2023-02-01T04:52:39;5.18;;;3.70;;
70253;SDS011;57649;42.968;1.608;2023-02-01T04:55:04;4.57;;;3.38;;
70253;SDS011;57649;42.968;1.608;2023-02-01T04:57:30;7.95;;;4.13;;
70253;SDS011;57649;42.968;1.608;2023-02-01T04:59:56;11.75;;;4.40;;
70253;SDS011;57649;42.968;1.608;2023-02-01T05:02:21;7.38;;;5.22;;
70253;SDS011;57649;42.968;1.608;2023-02-01T05:04:46;10.00;;;4.93;;
70253;SDS011;57649;42.968;1.608;2023-02-01T05:07:12;12.65;;;8.38;;
70253;SDS011;57649;42.968;1.608;2023-02-01T05:09:37;10.25;;;6.20;;
70253;SDS011;57649;42.968;1.608;2023-02-01T05:12:03;7.88;;;5.18;;
70253;SDS011;57649;42.968;1.608;2023-02-01T05:14:48;9.45;;;5.25;;
70253;SDS011;57649;42.968;1.608;2023-02-01T05:17:14;8.40;;;5.90;;
70253;SDS011;57649;42.968;1.608;2023-02-01T05:19:39;11.05;;;5.85;;
70253;SDS011;57649;42.968;1.608;2023-02-01T05:22:04;8.52;;;5.75;;
70253;SDS011;57649;42.968;1.608;2023-02-01T05:24:30;6.03;;;4.32;;
70253;SDS011;57649;42.968;1.608;2023-02-01T05:26:55;7.97;;;4.97;;
70253;SDS011;57649;42.968;1.608;2023-02-01T05:29:21;7.32;;;5.00;;
70253;SDS011;57649;42.968;1.608;2023-02-01T05:31:46;9.07;;;5.05;;
70253;SDS011;57649;42.968;1.608;2023-02-01T05:34:13;5.50;;;4.35;;
70253;SDS011;57649;42.968;1.608;2023-02-01T05:36:39;7.82;;;5.00;;
70253;SDS011;57649;42.968;1.608;2023-02-01T05:39:04;11.48;;;5.80;;
70253;SDS011;57649;42.968;1.608;2023-02-01T05:41:30;10.82;;;5.47;;
70253;SDS011;57649;42.968;1.608;2023-02-01T05:43:55;9.15;;;6.40;;
70253;SDS011;57649;42.968;1.608;2023-02-01T05:46:20;9.80;;;5.75;;
70253;SDS011;57649;42.968;1.608;2023-02-01T05:48:46;7.20;;;5.30;;
70253;SDS011;57649;42.968;1.608;2023-02-01T05:51:11;8.80;;;5.75;;
70253;SDS011;57649;42.968;1.608;2023-02-01T05:53:37;10.88;;;5.22;;
70253;SDS011;57649;42.968;1.608;2023-02-01T05:56:02;12.70;;;6.22;;
70253;SDS011;57649;42.968;1.608;2023-02-01T05:58:29;12.75;;;6.28;;
70253;SDS011;57649;42.968;1.608;2023-02-01T06:00:55;11.57;;;5.80;;
70253;SDS011;57649;42.968;1.608;2023-02-01T06:03:20;9.00;;;5.50;;
70253;SDS011;57649;42.968;1.608;2023-02-01T06:05:46;8.68;;;5.13;;
70253;SDS011;57649;42.968;1.608;2023-02-01T06:08:12;7.28;;;4.57;;
70253;SDS011;57649;42.968;1.608;2023-02-01T06:10:38;8.32;;;5.47;;
70253;SDS011;57649;42.968;1.608;2023-02-01T06:13:04;8.70;;;5.45;;
70253;SDS011;57649;42.968;1.608;2023-02-01T06:15:29;8.68;;;5.68;;
70253;SDS011;57649;42.968;1.608;2023-02-01T06:17:55;10.80;;;6.43;;
70253;SDS011;57649;42.968;1.608;2023-02-01T06:20:21;7.30;;;5.20;;
70253;SDS011;57649;42.968;1.608;2023-02-01T06:22:47;8.18;;;5.13;;
70253;SDS011;57649;42.968;1.608;2023-02-01T06:25:12;7.13;;;4.07;;
70253;SDS011;57649;42.968;1.608;2023-02-01T06:27:37;6.35;;;4.38;;
70253;SDS011;57649;42.968;1.608;2023-02-01T06:30:03;9.30;;;4.25;;
70253;SDS011;57649;42.968;1.608;2023-02-01T06:32:30;6.13;;;4.13;;
70253;SDS011;57649;42.968;1.608;2023-02-01T06:34:55;6.90;;;4.28;;
70253;SDS011;57649;42.968;1.608;2023-02-01T06:37:22;12.88;;;5.10;;
70253;SDS011;57649;42.968;1.608;2023-02-01T06:39:48;9.05;;;4.70;;
70253;SDS011;57649;42.968;1.608;2023-02-01T06:42:14;7.07;;;4.20;;
70253;SDS011;57649;42.968;1.608;2023-02-01T06:44:39;11.73;;;4.85;;
70253;SDS011;57649;42.968;1.608;2023-02-01T06:47:05;8.15;;;3.85;;
70253;SDS011;57649;42.968;1.608;2023-02-01T06:49:31;10.95;;;5.07;;
70253;SDS011;57649;42.968;1.608;2023-02-01T06:51:56;10.55;;;4.70;;
70253;SDS011;57649;42.968;1.608;2023-02-01T06:54:25;7.40;;;4.47;;
70253;SDS011;57649;42.968;1.608;2023-02-01T06:56:51;9.40;;;5.80;;
70253;SDS011;57649;42.968;1.608;2023-02-01T06:59:16;8.77;;;4.95;;
70253;SDS011;57649;42.968;1.608;2023-02-01T07:01:41;9.43;;;5.80;;
70253;SDS011;57649;42.968;1.608;2023-02-01T07:04:08;11.18;;;4.88;;
70253;SDS011;57649;42.968;1.608;2023-02-01T07:06:36;13.55;;;5.43;;
70253;SDS011;57649;42.968;1.608;2023-02-01T07:09:02;11.10;;;6.43;;
70253;SDS011;57649;42.968;1.608;2023-02-01T07:11:28;10.38;;;6.03;;
70253;SDS011;57649;42.968;1.608;2023-02-01T07:13:53;7.13;;;4.72;;
70253;SDS011;57649;42.968;1.608;2023-02-01T07:16:19;5.95;;;4.03;;
70253;SDS011;57649;42.968;1.608;2023-02-01T07:18:45;12.35;;;4.55;;
70253;SDS011;57649;42.968;1.608;2023-02-01T07:21:11;9.10;;;5.40;;
70253;SDS011;57649;42.968;1.608;2023-02-01T07:23:37;8.73;;;4.72;;
70253;SDS011;57649;42.968;1.608;2023-02-01T07:26:04;7.90;;;4.40;;
70253;SDS011;57649;42.968;1.608;2023-02-01T07:28:32;9.57;;;4.80;;
70253;SDS011;57649;42.968;1.608;2023-02-01T07:31:06;9.02;;;4.85;;
70253;SDS011;57649;42.968;1.608;2023-02-01T07:33:36;7.03;;;4.70;;
70253;SDS011;57649;42.968;1.608;2023-02-01T07:36:03;10.10;;;4.68;;
70253;SDS011;57649;42.968;1.608;2023-02-01T07:38:30;14.75;;;6.75;;
70253;SDS011;57649;42.968;1.608;2023-02-01T07:41:02;18.98;;;7.38;;
70253;SDS011;57649;42.968;1.608;2023-02-01T07:43:29;13.98;;;6.93;;
70253;SDS011;57649;42.968;1.608;2023-02-01T07:45:55;10.57;;;7.35;;
70253;SDS011;57649;42.968;1.608;2023-02-01T07:48:21;11.25;;;7.53;;
70253;SDS011;57649;42.968;1.608;2023-02-01T07:50:48;14.43;;;7.47;;
70253;SDS011;57649;42.968;1.608;2023-02-01T07:53:21;15.43;;;6.57;;
70253;SDS011;57649;42.968;1.608;2023-02-01T07:55:47;30.10;;;6.88;;
70253;SDS011;57649;42.968;1.608;2023-02-01T07:58:12;19.88;;;6.38;;
70253;SDS011;57649;42.968;1.608;2023-02-01T08:00:38;16.20;;;6.70;;
70253;SDS011;57649;42.968;1.608;2023-02-01T08:03:22;8.70;;;5.35;;
70253;SDS011;57649;42.968;1.608;2023-02-01T08:05:47;12.52;;;4.85;;
70253;SDS011;57649;42.968;1.608;2023-02-01T08:08:13;14.70;;;5.25;;
70253;SDS011;57649;42.968;1.608;2023-02-01T08:10:38;12.40;;;6.32;;
70253;SDS011;57649;42.968;1.608;2023-02-01T08:13:03;13.70;;;6.72;;
70253;SDS011;57649;42.968;1.608;2023-02-01T08:15:29;11.95;;;6.72;;
70253;SDS011;57649;42.968;1.608;2023-02-01T08:17:55;12.40;;;4.22;;
70253;SDS011;57649;42.968;1.608;2023-02-01T08:20:21;15.40;;;4.53;;
70253;SDS011;57649;42.968;1.608;2023-02-01T08:22:53;11.55;;;3.45;;
70253;SDS011;57649;42.968;1.608;2023-02-01T08:25:19;33.97;;;20.17;;
70253;SDS011;57649;42.968;1.608;2023-02-01T08:27:45;16.02;;;9.63;;
70253;SDS011;57649;42.968;1.608;2023-02-01T08:30:11;19.20;;;6.47;;
70253;SDS011;57649;42.968;1.608;2023-02-01T08:32:37;10.48;;;5.03;;
70253;SDS011;57649;42.968;1.608;2023-02-01T08:35:03;13.43;;;3.60;;
70253;SDS011;57649;42.968;1.608;2023-02-01T08:37:29;22.58;;;3.03;;
70253;SDS011;57649;42.968;1.608;2023-02-01T08:39:54;4.43;;;2.40;;
70253;SDS011;57649;42.968;1.608;2023-02-01T08:42:20;7.68;;;2.58;;
70253;SDS011;57649;42.968;1.608;2023-02-01T08:45:04;7.78;;;2.38;;
70253;SDS011;57649;42.968;1.608;2023-02-01T08:47:30;10.93;;;6.03;;
70253;SDS011;57649;42.968;1.608;2023-02-01T08:49:56;5.35;;;2.92;;
70253;SDS011;57649;42.968;1.608;2023-02-01T08:52:21;6.32;;;1.90;;
70253;SDS011;57649;42.968;1.608;2023-02-01T08:54:47;8.02;;;3.08;;
70253;SDS011;57649;42.968;1.608;2023-02-01T08:57:12;6.40;;;2.13;;
70253;SDS011;57649;42.968;1.608;2023-02-01T08:59:38;16.85;;;2.72;;
70253;SDS011;57649;42.968;1.608;2023-02-01T09:02:03;16.90;;;2.63;;
70253;SDS011;57649;42.968;1.608;2023-02-01T09:04:29;13.30;;;3.63;;
70253;SDS011;57649;42.968;1.608;2023-02-01T09:06:54;12.73;;;2.58;;
70253;SDS011;57649;42.968;1.608;2023-02-01T09:09:21;10.45;;;2.90;;
70253;SDS011;57649;42.968;1.608;2023-02-01T09:11:47;5.53;;;2.10;;
70253;SDS011;57649;42.968;1.608;2023-02-01T09:14:12;9.85;;;2.60;;
70253;SDS011;57649;42.968;1.608;2023-02-01T09:16:38;7.00;;;2.35;;
70253;SDS011;57649;42.968;1.608;2023-02-01T09:19:03;7.45;;;2.47;;
70253;SDS011;57649;42.968;1.608;2023-02-01T09:21:29;16.65;;;2.65;;
70253;SDS011;57649;42.968;1.608;2023-02-01T09:23:54;8.32;;;2.30;;
70253;SDS011;57649;42.968;1.608;2023-02-01T09:26:20;3.17;;;1.58;;
70253;SDS011;57649;42.968;1.608;2023-02-01T09:28:45;6.65;;;2.33;;
70253;SDS011;57649;42.968;1.608;2023-02-01T09:31:11;4.97;;;1.55;;
70253;SDS011;57649;42.968;1.608;2023-02-01T09:33:36;6.53;;;1.67;;
70253;SDS011;57649;42.968;1.608;2023-02-01T09:36:03;3.40;;;1.40;;
70253;SDS011;57649;42.968;1.608;2023-02-01T09:38:30;9.45;;;1.50;;
70253;SDS011;57649;42.968;1.608;2023-02-01T09:40:55;11.20;;;2.38;;
70253;SDS011;57649;42.968;1.608;2023-02-01T09:48:53;9.32;;;1.55;;
70253;SDS011;57649;42.968;1.608;2023-02-01T09:51:24;3.58;;;1.50;;
70253;SDS011;57649;42.968;1.608;2023-02-01T09:54:05;3.28;;;1.30;;
70253;SDS011;57649;42.968;1.608;2023-02-01T09:56:49;10.25;;;1.85;;
70253;SDS011;57649;42.968;1.608;2023-02-01T10:02:12;5.75;;;1.35;;
70253;SDS011;57649;42.968;1.608;2023-02-01T10:04:42;6.78;;;2.15;;
70253;SDS011;57649;42.968;1.608;2023-02-01T10:10:15;4.40;;;1.23;;
70253;SDS011;57649;42.968;1.608;2023-02-01T10:19:30;3.83;;;1.20;;
70253;SDS011;57649;42.968;1.608;2023-02-01T10:29:36;2.88;;;1.40;;
70253;SDS011;57649;42.968;1.608;2023-02-01T10:32:09;18.38;;;1.55;;
70253;SDS011;57649;42.968;1.608;2023-02-01T10:34:38;5.95;;;1.40;;
70253;SDS011;57649;42.968;1.608;2023-02-01T10:39:39;5.25;;;1.35;;
70253;SDS011;57649;42.968;1.608;2023-02-01T10:42:04;7.07;;;2.00;;
70253;SDS011;57649;42.968;1.608;2023-02-01T10:44:30;1.52;;;0.82;;
70253;SDS011;57649;42.968;1.608;2023-02-01T10:47:02;5.15;;;1.50;;
70253;SDS011;57649;42.968;1.608;2023-02-01T10:49:34;6.80;;;1.75;;
70253;SDS011;57649;42.968;1.608;2023-02-01T10:53:09;4.72;;;1.30;;
70253;SDS011;57649;42.968;1.608;2023-02-01T10:55:36;1.92;;;1.00;;
70253;SDS011;57649;42.968;1.608;2023-02-01T10:58:14;1.73;;;0.98;;
70253;SDS011;57649;42.968;1.608;2023-02-01T11:03:29;4.15;;;1.33;;
70253;SDS011;57649;42.968;1.608;2023-02-01T11:06:04;1.92;;;0.73;;
70253;SDS011;57649;42.968;1.608;2023-02-01T11:08:57;3.90;;;2.55;;
70253;SDS011;57649;42.968;1.608;2023-02-01T11:11:25;3.42;;;0.80;;
70253;SDS011;57649;42.968;1.608;2023-02-01T11:13:54;1.90;;;0.90;;
70253;SDS011;57649;42.968;1.608;2023-02-01T11:16:29;1.45;;;0.80;;
70253;SDS011;57649;42.968;1.608;2023-02-01T11:18:59;3.05;;;1.02;;
70253;SDS011;57649;42.968;1.608;2023-02-01T11:21:25;6.97;;;1.30;;
70253;SDS011;57649;42.968;1.608;2023-02-01T11:23:51;3.42;;;1.67;;
70253;SDS011;57649;42.968;1.608;2023-02-01T11:26:26;2.47;;;1.40;;
70253;SDS011;57649;42.968;1.608;2023-02-01T11:29:05;2.47;;;1.70;;
70253;SDS011;57649;42.968;1.608;2023-02-01T11:31:38;2.20;;;1.20;;
70253;SDS011;57649;42.968;1.608;2023-02-01T11:36:31;3.17;;;1.42;;
70253;SDS011;57649;42.968;1.608;2023-02-01T11:44:34;2.80;;;1.58;;
70253;SDS011;57649;42.968;1.608;2023-02-01T11:50:05;4.30;;;1.70;;
70253;SDS011;57649;42.968;1.608;2023-02-01T11:55:33;2.40;;;1.75;;
70253;SDS011;57649;42.968;1.608;2023-02-01T12:00:44;3.53;;;1.70;;
70253;SDS011;57649;42.968;1.608;2023-02-01T12:06:11;4.35;;;2.17;;
70253;SDS011;57649;42.968;1.608;2023-02-01T12:09:03;2.70;;;1.67;;
70253;SDS011;57649;42.968;1.608;2023-02-01T12:33:52;7.25;;;3.40;;
70253;SDS011;57649;42.968;1.608;2023-02-01T12:36:41;4.65;;;1.90;;
70253;SDS011;57649;42.968;1.608;2023-02-01T12:39:39;7.30;;;2.00;;
70253;SDS011;57649;42.968;1.608;2023-02-01T12:44:55;4.45;;;2.10;;
70253;SDS011;57649;42.968;1.608;2023-02-01T12:55:08;4.93;;;2.13;;
70253;SDS011;57649;42.968;1.608;2023-02-01T12:57:46;3.38;;;1.83;;
70253;SDS011;57649;42.968;1.608;2023-02-01T13:05:22;4.70;;;2.30;;
70253;SDS011;57649;42.968;1.608;2023-02-01T13:07:56;5.78;;;2.75;;
70253;SDS011;57649;42.968;1.608;2023-02-01T13:10:35;7.60;;;1.90;;
70253;SDS011;57649;42.968;1.608;2023-02-01T13:15:57;3.40;;;1.73;;
70253;SDS011;57649;42.968;1.608;2023-02-01T13:18:37;2.22;;;1.27;;
70253;SDS011;57649;42.968;1.608;2023-02-01T13:21:12;5.15;;;2.80;;
70253;SDS011;57649;42.968;1.608;2023-02-01T13:23:43;3.50;;;2.17;;
70253;SDS011;57649;42.968;1.608;2023-02-01T13:26:12;3.63;;;1.80;;
70253;SDS011;57649;42.968;1.608;2023-02-01T13:28:52;3.17;;;2.03;;
70253;SDS011;57649;42.968;1.608;2023-02-01T13:31:28;7.00;;;3.55;;
70253;SDS011;57649;42.968;1.608;2023-02-01T13:34:32;8.45;;;2.88;;
70253;SDS011;57649;42.968;1.608;2023-02-01T13:37:21;5.63;;;3.08;;
70253;SDS011;57649;42.968;1.608;2023-02-01T13:42:48;3.22;;;1.60;;
70253;SDS011;57649;42.968;1.608;2023-02-01T13:45:17;5.10;;;1.88;;
70253;SDS011;57649;42.968;1.608;2023-02-01T13:47:47;4.97;;;1.75;;
70253;SDS011;57649;42.968;1.608;2023-02-01T13:55:38;4.70;;;1.80;;
70253;SDS011;57649;42.968;1.608;2023-02-01T14:00:45;3.95;;;2.03;;
70253;SDS011;57649;42.968;1.608;2023-02-01T14:03:14;3.47;;;1.65;;
70253;SDS011;57649;42.968;1.608;2023-02-01T14:08:20;3.65;;;1.85;;
70253;SDS011;57649;42.968;1.608;2023-02-01T14:11:07;3.25;;;1.80;;
70253;SDS011;57649;42.968;1.608;2023-02-01T14:21:59;3.58;;;1.63;;
70253;SDS011;57649;42.968;1.608;2023-02-01T14:24:49;3.17;;;1.75;;
70253;SDS011;57649;42.968;1.608;2023-02-01T14:27:20;5.10;;;1.85;;
70253;SDS011;57649;42.968;1.608;2023-02-01T14:29:52;3.40;;;1.70;;
70253;SDS011;57649;42.968;1.608;2023-02-01T14:32:23;3.28;;;1.40;;
70253;SDS011;57649;42.968;1.608;2023-02-01T14:34:56;8.98;;;2.10;;
70253;SDS011;57649;42.968;1.608;2023-02-01T14:39:59;6.82;;;2.10;;
70253;SDS011;57649;42.968;1.608;2023-02-01T14:47:45;6.53;;;1.63;;
70253;SDS011;57649;42.968;1.608;2023-02-01T15:01:46;5.13;;;2.17;;
70253;SDS011;57649;42.968;1.608;2023-02-01T15:04:24;4.40;;;2.97;;
70253;SDS011;57649;42.968;1.608;2023-02-01T15:14:18;2.83;;;1.40;;
70253;SDS011;57649;42.968;1.608;2023-02-01T15:16:44;2.75;;;1.52;;
70253;SDS011;57649;42.968;1.608;2023-02-01T15:19:15;5.10;;;1.50;;
70253;SDS011;57649;42.968;1.608;2023-02-01T15:21:45;5.82;;;1.83;;
70253;SDS011;57649;42.968;1.608;2023-02-01T15:24:13;3.70;;;1.70;;
70253;SDS011;57649;42.968;1.608;2023-02-01T15:26:50;8.07;;;2.35;;
70253;SDS011;57649;42.968;1.608;2023-02-01T15:29:17;3.20;;;1.70;;
70253;SDS011;57649;42.968;1.608;2023-02-01T15:31:48;4.05;;;1.83;;
70253;SDS011;57649;42.968;1.608;2023-02-01T15:34:15;7.03;;;1.70;;
70253;SDS011;57649;42.968;1.608;2023-02-01T15:36:41;3.80;;;1.90;;
70253;SDS011;57649;42.968;1.608;2023-02-01T15:41:57;6.43;;;2.95;;
70253;SDS011;57649;42.968;1.608;2023-02-01T15:46:52;2.97;;;1.83;;
70253;SDS011;57649;42.968;1.608;2023-02-01T15:49:23;7.07;;;1.70;;
70253;SDS011;57649;42.968;1.608;2023-02-01T15:51:52;8.57;;;2.83;;
70253;SDS011;57649;42.968;1.608;2023-02-01T15:54:22;3.13;;;1.60;;
70253;SDS011;57649;42.968;1.608;2023-02-01T15:56:58;7.97;;;3.50;;
70253;SDS011;57649;42.968;1.608;2023-02-01T15:59:34;9.13;;;2.67;;
70253;SDS011;57649;42.968;1.608;2023-02-01T16:02:22;7.47;;;3.08;;
70253;SDS011;57649;42.968;1.608;2023-02-01T16:04:54;9.20;;;2.33;;
70253;SDS011;57649;42.968;1.608;2023-02-01T16:07:30;5.45;;;2.00;;
70253;SDS011;57649;42.968;1.608;2023-02-01T16:09:58;4.05;;;2.20;;
70253;SDS011;57649;42.968;1.608;2023-02-01T16:15:09;10.07;;;2.63;;
70253;SDS011;57649;42.968;1.608;2023-02-01T16:17:34;6.45;;;3.10;;
70253;SDS011;57649;42.968;1.608;2023-02-01T16:20:00;7.00;;;3.60;;
70253;SDS011;57649;42.968;1.608;2023-02-01T16:22:25;11.43;;;3.92;;
70253;SDS011;57649;42.968;1.608;2023-02-01T16:24:51;6.18;;;3.08;;
70253;SDS011;57649;42.968;1.608;2023-02-01T16:27:16;9.00;;;3.08;;
70253;SDS011;57649;42.968;1.608;2023-02-01T16:29:42;8.02;;;4.43;;
70253;SDS011;57649;42.968;1.608;2023-02-01T16:32:13;8.13;;;5.15;;
70253;SDS011;57649;42.968;1.608;2023-02-01T16:34:44;7.15;;;4.10;;
70253;SDS011;57649;42.968;1.608;2023-02-01T16:37:12;7.95;;;4.07;;
70253;SDS011;57649;42.968;1.608;2023-02-01T16:39:40;7.22;;;4.20;;
70253;SDS011;57649;42.968;1.608;2023-02-01T16:42:12;9.93;;;3.75;;
70253;SDS011;57649;42.968;1.608;2023-02-01T16:44:39;10.20;;;4.90;;
70253;SDS011;57649;42.968;1.608;2023-02-01T16:47:11;11.00;;;5.68;;
70253;SDS011;57649;42.968;1.608;2023-02-01T16:52:28;10.88;;;5.47;;
70253;SDS011;57649;42.968;1.608;2023-02-01T16:54:54;11.02;;;5.53;;
70253;SDS011;57649;42.968;1.608;2023-02-01T16:57:19;12.63;;;5.90;;
70253;SDS011;57649;42.968;1.608;2023-02-01T16:59:48;14.65;;;7.40;;
70253;SDS011;57649;42.968;1.608;2023-02-01T17:02:14;7.63;;;3.40;;
70253;SDS011;57649;42.968;1.608;2023-02-01T17:04:41;7.97;;;3.83;;
70253;SDS011;57649;42.968;1.608;2023-02-01T17:07:17;6.68;;;3.35;;
70253;SDS011;57649;42.968;1.608;2023-02-01T17:09:43;7.57;;;3.72;;
70253;SDS011;57649;42.968;1.608;2023-02-01T17:12:25;6.47;;;4.40;;
70253;SDS011;57649;42.968;1.608;2023-02-01T17:14:54;8.70;;;3.83;;
70253;SDS011;57649;42.968;1.608;2023-02-01T17:17:21;11.82;;;5.57;;
70253;SDS011;57649;42.968;1.608;2023-02-01T17:19:48;11.95;;;4.70;;
70253;SDS011;57649;42.968;1.608;2023-02-01T17:22:21;8.77;;;4.43;;
70253;SDS011;57649;42.968;1.608;2023-02-01T17:24:47;9.13;;;3.63;;
70253;SDS011;57649;42.968;1.608;2023-02-01T17:27:14;5.50;;;3.33;;
70253;SDS011;57649;42.968;1.608;2023-02-01T17:29:41;12.23;;;5.15;;
70253;SDS011;57649;42.968;1.608;2023-02-01T17:32:12;11.15;;;5.35;;
70253;SDS011;57649;42.968;1.608;2023-02-01T17:34:41;12.70;;;5.00;;
70253;SDS011;57649;42.968;1.608;2023-02-01T17:37:09;8.18;;;4.30;;
70253;SDS011;57649;42.968;1.608;2023-02-01T17:40:00;8.23;;;3.78;;
70253;SDS011;57649;42.968;1.608;2023-02-01T17:42:27;12.18;;;6.55;;
70253;SDS011;57649;42.968;1.608;2023-02-01T17:44:55;9.70;;;6.93;;
70253;SDS011;57649;42.968;1.608;2023-02-01T17:47:22;13.45;;;7.35;;
70253;SDS011;57649;42.968;1.608;2023-02-01T17:49:48;13.82;;;7.38;;
70253;SDS011;57649;42.968;1.608;2023-02-01T17:52:20;9.32;;;5.65;;
70253;SDS011;57649;42.968;1.608;2023-02-01T17:54:46;9.05;;;5.10;;
70253;SDS011;57649;42.968;1.608;2023-02-01T17:57:14;13.35;;;6.22;;
70253;SDS011;57649;42.968;1.608;2023-02-01T17:59:41;15.30;;;7.70;;
70253;SDS011;57649;42.968;1.608;2023-02-01T18:02:21;15.00;;;8.40;;